createdAt,value
2023-01-18T00:04:47.943Z,63.13
2023-01-18T00:09:53.858Z,63.24
2023-01-18T00:14:58.206Z,62.96
2023-01-18T00:19:58.842Z,62.66
2023-01-18T00:25:04.815Z,62.39
2023-01-18T00:30:02.815Z,62.11
2023-01-18T00:34:58.948Z,61.89
2023-01-18T00:39:55.610Z,61.73
2023-01-18T00:44:50.619Z,61.31
2023-01-18T00:49:48.280Z,61.51
2023-01-18T00:54:43.412Z,61.36
2023-01-18T00:59:39.301Z,61.42
2023-01-18T01:04:53.060Z,61.47
2023-01-18T01:10:32.700Z,61.40
2023-01-18T01:15:37.184Z,61.04
2023-01-18T01:20:48.833Z,60.72
2023-01-18T01:26:07.338Z,60.52
2023-01-18T01:31:18.099Z,60.72
2023-01-18T01:36:22.568Z,60.76
2023-01-18T01:41:25.609Z,60.32
2023-01-18T01:46:45.619Z,60.24
2023-01-18T01:51:45.857Z,60.04
2023-01-18T01:56:48.226Z,60.31
2023-01-18T02:01:44.947Z,60.24
2023-01-18T02:06:44.258Z,60.56
2023-01-18T02:11:48.368Z,60.65
2023-01-18T02:17:00.339Z,60.44
2023-01-18T02:22:09.438Z,60.58
2023-01-18T02:27:06.715Z,60.58
2023-01-18T02:32:25.026Z,60.71
2023-01-18T02:37:27.552Z,60.21
2023-01-18T02:42:43.168Z,60.48
2023-01-18T02:47:38.911Z,60.19
2023-01-18T02:52:42.501Z,60.07
2023-01-18T02:57:36.911Z,59.91
2023-01-18T03:02:45.094Z,59.50
2023-01-18T03:07:47.633Z,59.29
2023-01-18T03:12:47.866Z,59.18
2023-01-18T03:17:48.113Z,58.37
2023-01-18T03:23:03.713Z,58.38
2023-01-18T03:28:58.679Z,58.06
2023-01-18T03:33:57.384Z,57.58
2023-01-18T03:39:04.063Z,57.48
2023-01-18T03:44:09.364Z,57.66
2023-01-18T03:49:08.691Z,57.29
2023-01-18T03:54:10.180Z,57.30
2023-01-18T03:59:09.777Z,57.41
2023-01-18T04:04:09.716Z,57.55
2023-01-18T04:09:04.529Z,57.72
2023-01-18T04:14:07.456Z,57.62
2023-01-18T04:19:13.779Z,57.80
2023-01-18T04:24:11.519Z,58.17
2023-01-18T04:29:05.380Z,58.21
2023-01-18T04:33:58.906Z,58.68
2023-01-18T04:38:57.435Z,58.65
2023-01-18T04:44:05.082Z,59.46
2023-01-18T04:49:05.888Z,59.59
2023-01-18T04:54:02.628Z,59.78
2023-01-18T04:58:58.175Z,60.05
2023-01-18T05:03:55.114Z,60.44
2023-01-18T05:08:49.091Z,60.84
2023-01-18T05:13:46.763Z,60.99
2023-01-18T05:18:40.556Z,61.16
2023-01-18T05:23:34.098Z,61.02
2023-01-18T05:28:32.856Z,61.16
2023-01-18T05:33:30.290Z,61.36
2023-01-18T05:38:25.576Z,61.66
2023-01-18T05:43:20.388Z,61.24
2023-01-18T05:48:26.244Z,61.17
2023-01-18T05:53:23.498Z,61.45
2023-01-18T05:58:16.772Z,61.51
2023-01-18T06:03:10.880Z,61.05
2023-01-18T06:08:04.177Z,60.92
2023-01-18T06:12:59.265Z,60.31
2023-01-18T06:17:56.189Z,60.69
2023-01-18T06:22:49.579Z,60.76
2023-01-18T06:27:42.983Z,60.80
2023-01-18T06:32:38.022Z,60.74
2023-01-18T06:37:35.260Z,60.42
2023-01-18T06:42:30.288Z,60.70
2023-01-18T06:47:23.467Z,60.29
2023-01-18T06:52:18.163Z,60.15
2023-01-18T06:57:11.364Z,60.21
2023-01-18T07:02:09.257Z,59.60
2023-01-18T07:07:04.118Z,59.63
2023-01-18T07:11:58.938Z,59.23
2023-01-18T07:16:52.353Z,58.64
2023-01-18T07:21:47.280Z,58.42
2023-01-18T07:26:44.247Z,57.80
2023-01-18T07:31:41.869Z,57.80
2023-01-18T07:36:35.151Z,56.99
2023-01-18T07:41:30.214Z,57.54
2023-01-18T07:46:26.060Z,56.65
2023-01-18T07:51:22.465Z,57.12
2023-01-18T07:56:17.371Z,56.73
2023-01-18T08:01:13.790Z,56.88
2023-01-18T08:06:09.004Z,57.14
2023-01-18T08:11:06.793Z,56.21
2023-01-18T08:16:11.280Z,55.59
2023-01-18T08:21:11.188Z,55.11
2023-01-18T08:26:06.709Z,54.39
2023-01-18T08:31:08.382Z,54.08
2023-01-18T08:36:01.862Z,53.66
2023-01-18T08:40:56.259Z,53.01
2023-01-18T08:45:52.784Z,52.85
2023-01-18T08:50:46.605Z,52.28
2023-01-18T08:55:40.689Z,52.20
2023-01-18T09:00:34.408Z,51.53
2023-01-18T09:05:29.496Z,50.61
2023-01-18T09:10:23.312Z,50.43
2023-01-18T09:15:18.299Z,50.51
2023-01-18T09:20:28.936Z,47.53
2023-01-18T09:25:29.680Z,46.09
2023-01-18T09:30:23.126Z,46.27
2023-01-18T09:35:18.348Z,46.56
2023-01-18T09:40:17.799Z,46.72
2023-01-18T09:45:28.462Z,46.98
2023-01-18T09:50:22.805Z,47.48
2023-01-18T09:55:23.885Z,47.30
2023-01-18T10:00:24.224Z,47.49
2023-01-18T10:05:22.390Z,47.10
2023-01-18T10:10:19.259Z,46.46
2023-01-18T10:15:23.219Z,46.76
2023-01-18T10:20:18.758Z,46.00
2023-01-18T10:25:19.715Z,43.61
2023-01-18T10:30:38.545Z,42.43
2023-01-18T10:35:40.349Z,43.37
2023-01-18T10:40:36.854Z,44.20
2023-01-18T10:45:34.635Z,44.36
2023-01-18T10:50:36.975Z,45.02
2023-01-18T10:55:32.771Z,46.05
2023-01-18T11:00:32.391Z,45.38
2023-01-18T11:05:31.195Z,43.84
2023-01-18T11:10:27.594Z,43.26
2023-01-18T11:15:27.569Z,42.31
2023-01-18T11:20:25.100Z,41.77
2023-01-18T11:25:24.013Z,40.20
2023-01-18T11:30:24.170Z,39.67
2023-01-18T11:35:28.483Z,38.48
2023-01-18T11:40:29.802Z,39.44
2023-01-18T11:45:31.175Z,39.00
2023-01-18T11:50:36.653Z,39.03
2023-01-18T11:55:36.274Z,39.83
2023-01-18T12:00:43.847Z,40.39
2023-01-18T12:05:46.054Z,40.69
2023-01-18T12:10:52.287Z,41.44
2023-01-18T12:16:02.953Z,42.08
2023-01-18T12:21:05.103Z,41.84
2023-01-18T12:26:18.106Z,42.68
2023-01-18T12:31:22.143Z,42.25
2023-01-18T12:36:32.263Z,42.05
2023-01-18T12:41:57.372Z,41.94
2023-01-18T12:47:01.133Z,41.96
2023-01-18T12:52:16.935Z,42.13
2023-01-18T12:57:20.689Z,42.09
2023-01-18T13:02:27.575Z,42.01
2023-01-18T13:07:27.895Z,41.43
2023-01-18T13:12:24.963Z,41.56
2023-01-18T13:17:28.444Z,41.21
2023-01-18T13:22:32.470Z,41.71
2023-01-18T13:27:27.395Z,42.48
2023-01-18T13:32:27.856Z,42.18
2023-01-18T13:37:41.791Z,42.56
2023-01-18T13:42:40.745Z,42.45
2023-01-18T13:47:58.799Z,43.21
2023-01-18T13:53:20.086Z,43.05
2023-01-18T13:58:21.821Z,43.31
2023-01-18T14:03:24.705Z,43.72
2023-01-18T14:08:25.010Z,43.96
2023-01-18T14:13:40.295Z,44.09
2023-01-18T14:18:33.698Z,44.49
2023-01-18T14:23:56.856Z,44.56
2023-01-18T14:29:00.113Z,44.91
2023-01-18T14:33:54.914Z,45.50
2023-01-18T14:38:52.041Z,45.60
2023-01-18T14:43:47.387Z,45.67
2023-01-18T14:48:48.556Z,45.93
2023-01-18T14:53:46.644Z,46.47
2023-01-18T14:58:43.572Z,46.28
2023-01-18T15:03:42.289Z,46.43
2023-01-18T15:08:38.921Z,47.04
2023-01-18T15:13:34.207Z,47.21
2023-01-18T15:18:31.228Z,46.90
2023-01-18T15:23:26.782Z,47.25
2023-01-18T15:28:34.569Z,46.88
2023-01-18T15:33:37.111Z,47.40
2023-01-18T15:38:54.110Z,47.66
2023-01-18T15:43:51.767Z,47.71
2023-01-18T15:49:49.985Z,48.05
2023-01-18T16:01:29.973Z,49.05
2023-01-18T16:06:45.083Z,49.31
2023-01-18T16:11:46.568Z,49.93
2023-01-18T16:16:48.996Z,49.98
2023-01-18T16:21:50.171Z,50.32
2023-01-18T16:26:45.007Z,50.89
2023-01-18T16:31:43.770Z,50.71
2023-01-18T16:36:45.163Z,51.37
2023-01-18T16:41:38.833Z,51.88
2023-01-18T16:46:44.853Z,51.80
2023-01-18T16:51:40.983Z,51.92
2023-01-18T16:56:34.868Z,52.36
2023-01-18T17:01:29.995Z,52.69
2023-01-18T17:06:29.412Z,52.87
2023-01-18T17:11:24.225Z,53.09
2023-01-18T17:16:20.678Z,53.47
2023-01-18T17:21:14.361Z,53.39
2023-01-18T17:26:11.425Z,53.33
2023-01-18T17:31:06.780Z,52.87
2023-01-18T17:41:01.527Z,52.58
2023-01-18T17:46:01.584Z,52.35
2023-01-18T17:50:56.880Z,52.32
2023-01-18T17:55:50.185Z,52.21
2023-01-18T18:00:43.659Z,52.09
2023-01-18T18:05:39.970Z,52.06
2023-01-18T18:10:34.743Z,52.26
2023-01-18T18:15:28.209Z,52.01
2023-01-18T18:20:23.090Z,52.04
2023-01-18T18:25:16.450Z,51.84
2023-01-18T18:30:17.837Z,51.47
2023-01-18T18:35:24.909Z,52.00
2023-01-18T18:40:28.831Z,52.10
2023-01-18T18:45:24.735Z,52.44
2023-01-18T18:50:18.321Z,51.91
2023-01-18T18:55:14.898Z,52.32
2023-01-18T19:00:09.838Z,52.06
2023-01-18T19:05:05.402Z,52.41
2023-01-18T19:10:03.440Z,52.04
2023-01-18T19:14:56.924Z,52.47
2023-01-18T19:20:08.000Z,52.51
2023-01-18T19:25:13.234Z,52.70
2023-01-18T19:30:13.520Z,52.73
2023-01-18T19:35:07.806Z,53.27
2023-01-18T19:40:15.238Z,53.26
2023-01-18T19:45:13.903Z,53.41
2023-01-18T19:50:24.164Z,53.52
2023-01-18T19:55:19.037Z,53.69
2023-01-18T20:00:16.905Z,54.13
2023-01-18T20:05:23.569Z,54.10
2023-01-18T20:10:24.746Z,54.11
2023-01-18T20:15:19.251Z,54.40
2023-01-18T20:20:20.947Z,54.52
2023-01-18T20:25:22.641Z,54.63
2023-01-18T20:30:17.099Z,54.57
2023-01-18T20:35:16.524Z,54.96
2023-01-18T20:40:11.760Z,55.43
2023-01-18T20:45:10.612Z,55.52
2023-01-18T20:50:06.594Z,56.23
2023-01-18T20:55:04.294Z,56.26
2023-01-18T21:00:00.990Z,56.76
2023-01-18T21:04:58.364Z,56.63
2023-01-18T21:09:51.856Z,56.62
2023-01-18T21:14:47.439Z,56.33
2023-01-18T21:19:48.198Z,56.54
2023-01-18T21:24:46.008Z,56.62
2023-01-18T21:29:41.815Z,56.54
2023-01-18T21:34:42.354Z,56.37
2023-01-18T21:39:42.629Z,56.61
2023-01-18T21:44:55.205Z,57.15
2023-01-18T21:50:21.481Z,57.29
2023-01-18T21:55:17.912Z,57.72
2023-01-18T22:00:18.231Z,57.84
2023-01-18T22:05:14.379Z,58.25
2023-01-18T22:10:16.522Z,58.99
2023-01-18T22:15:13.832Z,59.23
2023-01-18T22:20:22.939Z,59.52
2023-01-18T22:25:18.633Z,59.72
2023-01-18T22:30:14.847Z,59.64
2023-01-18T22:35:08.452Z,59.98
2023-01-18T22:40:05.692Z,60.01
2023-01-18T22:44:59.132Z,60.38
2023-01-18T22:49:55.577Z,60.83
2023-01-18T22:54:53.969Z,60.78
2023-01-18T23:00:05.937Z,60.97
2023-01-18T23:05:00.753Z,61.39
2023-01-18T23:09:54.092Z,61.35
2023-01-18T23:15:04.597Z,61.53
2023-01-18T23:19:59.870Z,61.44
2023-01-18T23:24:54.905Z,62.18
2023-01-18T23:29:58.855Z,62.01
2023-01-18T23:34:52.689Z,62.24
2023-01-18T23:40:03.389Z,62.27
2023-01-18T23:45:16.717Z,62.27
2023-01-18T23:50:29.048Z,62.94
2023-01-18T23:55:26.836Z,62.90
